Time;durP1;ratioP1;P1;durP2;ratioP2;P2;SDS_P1;SDS_P2;PMS_P1;PMS_P2;Temp;Humidity;BMP_temperature;BMP_pressure;BME280_temperature;BME280_humidity;BME280_pressure;Samples;Min_cycle;Max_cycle;Signal;HPM_P1;HPM_P2
2023/08/30 00:01:04;;;;;;;;;;;22.30;1.00;;;;;;4995478;28;19980;-62
2023/08/30 00:03:31;;;;;;;;;;;22.30;1.00;;;;;;4995364;28;20261;-62
2023/08/30 00:06:02;;;;;;;;;;;22.30;1.00;;;;;;4995369;28;19926;-62
2023/08/30 00:08:29;;;;;;;;;;;22.30;1.00;;;;;;4995612;28;19925;-62
2023/08/30 00:10:58;;;;;;;;;;;22.30;1.00;;;;;;4995458;28;19926;-62
2023/08/30 00:13:25;;;;;;;;;;;22.30;1.00;;;;;;4995102;28;19930;-62
2023/08/30 00:15:52;;;;;;;;;;;22.30;1.00;;;;;;4995208;28;19933;-62
2023/08/30 00:18:19;;;;;;;;;;;22.30;1.00;;;;;;4995148;28;19998;-62
2023/08/30 00:20:45;;;;;;;;;;;22.30;1.00;;;;;;4995046;28;19925;-61
2023/08/30 00:26:02;;;;;;;;;;;22.30;1.00;;;;;;4973799;28;19933;-61
2023/08/30 00:28:29;;;;;;;;;;;22.30;1.00;;;;;;4975587;28;19926;-61
2023/08/30 00:30:56;;;;;;;;;;;22.30;1.00;;;;;;4975604;28;19948;-61
2023/08/30 00:33:23;;;;;;;;;;;22.30;1.00;;;;;;4973929;28;19942;-62
2023/08/30 00:35:56;;;;;;;;;;;22.30;1.00;;;;;;4958076;28;19988;-61
2023/08/30 00:38:23;;;;;;;;;;;22.30;1.00;;;;;;4975479;28;19927;-62
2023/08/30 00:40:50;;;;;;;;;;;22.30;1.00;;;;;;4958027;28;20028;-61
2023/08/30 00:43:17;;;;;;;;;;;22.30;1.00;;;;;;4957755;28;19926;-61
2023/08/30 00:45:44;;;;;;;;;;;22.20;1.00;;;;;;4957870;28;20342;-61
2023/08/30 00:48:11;;;;;;;;;;;22.20;1.00;;;;;;4975103;28;19930;-61
2023/08/30 00:50:39;;;;;;;;;;;22.20;1.00;;;;;;4975116;28;20025;-62
2023/08/30 00:53:06;;;;;;;;;;;22.20;1.00;;;;;;4957678;28;19926;-62
2023/08/30 00:55:34;;;;;;;;;;;22.20;1.00;;;;;;4957638;28;20297;-61
2023/08/30 00:58:29;;;;;;;;;;;22.20;1.00;;;;;;5163252;23;20028;-61
2023/08/30 01:00:56;;;;;;;;;;;22.20;1.00;;;;;;4975201;28;20501;-62
2023/08/30 01:03:23;;;;;;;;;;;22.20;1.00;;;;;;4974858;28;19933;-62
2023/08/30 01:05:49;;;;;;;;;;;22.20;1.00;;;;;;4951969;29;20390;-60
2023/08/30 01:08:16;;;;;;;;;;;22.20;1.00;;;;;;4969072;28;20017;-61
2023/08/30 01:10:49;;;;;;;;;;;22.20;1.00;;;;;;4973572;28;19961;-62
2023/08/30 01:13:19;;;;;;;;;;;22.20;1.00;;;;;;4974640;28;19989;-62
2023/08/30 01:15:47;;;;;;;;;;;22.20;1.00;;;;;;4974594;28;20009;-62
2023/08/30 01:18:17;;;;;;;;;;;22.20;1.00;;;;;;4974729;28;19930;-62
2023/08/30 01:20:44;;;;;;;;;;;22.20;1.00;;;;;;4974642;28;19958;-61
2023/08/30 01:23:17;;;;;;;;;;;22.20;1.00;;;;;;4973215;28;19953;-60
2023/08/30 01:25:55;;;;;;;;;;;22.20;1.00;;;;;;4957196;28;19926;-61
2023/08/30 01:28:23;;;;;;;;;;;22.20;1.00;;;;;;4974475;28;20028;-61
2023/08/30 01:30:54;;;;;;;;;;;22.20;1.00;;;;;;4974652;28;19989;-61
2023/08/30 01:33:22;;;;;;;;;;;22.20;1.00;;;;;;4957004;28;19926;-62
2023/08/30 01:35:51;;;;;;;;;;;22.20;1.00;;;;;;4974276;28;19926;-61
2023/08/30 01:38:18;;;;;;;;;;;22.10;1.00;;;;;;4974233;28;20024;-60
2023/08/30 01:40:45;;;;;;;;;;;22.10;1.00;;;;;;4974272;28;19930;-62
2023/08/30 01:43:13;;;;;;;;;;;22.10;1.00;;;;;;4956652;28;20033;-62
2023/08/30 01:45:41;;;;;;;;;;;22.10;1.00;;;;;;4956754;28;19926;-61
2023/08/30 01:48:10;;;;;;;;;;;22.10;1.00;;;;;;4956863;28;19926;-62
2023/08/30 01:50:42;;;;;;;;;;;22.10;1.00;;;;;;4956835;28;19976;-61
2023/08/30 01:53:09;;;;;;;;;;;22.10;1.00;;;;;;4956549;28;20024;-61
2023/08/30 01:55:38;;;;;;;;;;;22.10;1.00;;;;;;4956341;28;20266;-60
2023/08/30 01:58:06;;;;;;;;;;;22.10;1.00;;;;;;4956528;28;20012;-59
2023/08/30 02:00:34;;;;;;;;;;;22.10;1.00;;;;;;5104635;23;19965;-61
2023/08/30 02:03:07;;;;;;;;;;;22.10;1.00;;;;;;4993184;28;19998;-61
2023/08/30 02:05:34;;;;;;;;;;;22.10;1.00;;;;;;4991793;28;19984;-61
2023/08/30 02:08:14;;;;;;;;;;;22.10;1.00;;;;;;4993309;28;19925;-61
2023/08/30 02:10:48;;;;;;;;;;;22.10;1.00;;;;;;4992021;28;20240;-61
2023/08/30 02:13:17;;;;;;;;;;;22.10;1.00;;;;;;4992108;28;20393;-61
2023/08/30 02:15:44;;;;;;;;;;;22.10;1.00;;;;;;4993571;28;20014;-61
2023/08/30 02:18:12;;;;;;;;;;;22.10;1.00;;;;;;4992314;28;19926;-61
2023/08/30 02:20:38;;;;;;;;;;;22.10;1.00;;;;;;4992072;28;19926;-61
2023/08/30 02:23:09;;;;;;;;;;;22.10;1.00;;;;;;4992882;28;20373;-62
2023/08/30 02:25:41;;;;;;;;;;;22.10;1.00;;;;;;4991755;28;19926;-61
2023/08/30 02:28:07;;;;;;;;;;;22.10;1.00;;;;;;4991762;28;20247;-62
2023/08/30 02:30:35;;;;;;;;;;;22.10;1.00;;;;;;5061263;23;20297;-61
2023/08/30 02:33:01;;;;;;;;;;;22.10;1.00;;;;;;4975472;28;19926;-61
2023/08/30 02:35:28;;;;;;;;;;;22.10;1.00;;;;;;4992646;28;20033;-61
2023/08/30 02:37:55;;;;;;;;;;;22.10;1.00;;;;;;4975435;28;19933;-61
2023/08/30 02:40:22;;;;;;;;;;;22.10;1.00;;;;;;4975610;28;19984;-61
2023/08/30 02:42:48;;;;;;;;;;;22.10;1.00;;;;;;4975198;28;19933;-61
2023/08/30 02:45:15;;;;;;;;;;;22.00;1.00;;;;;;4975356;28;19932;-62
2023/08/30 02:47:44;;;;;;;;;;;22.10;1.00;;;;;;4975328;28;20009;-61
2023/08/30 02:50:11;;;;;;;;;;;22.00;1.00;;;;;;4975306;28;19926;-61
2023/08/30 02:52:38;;;;;;;;;;;22.10;1.00;;;;;;4975126;28;19977;-63
2023/08/30 02:55:05;;;;;;;;;;;22.00;1.00;;;;;;4992606;28;19933;-62
2023/08/30 02:57:32;;;;;;;;;;;22.00;1.00;;;;;;4992613;28;19925;-61
2023/08/30 02:59:59;;;;;;;;;;;22.00;1.00;;;;;;4975201;28;19930;-62
2023/08/30 03:02:26;;;;;;;;;;;22.00;1.00;;;;;;5393795;23;19930;-59
2023/08/30 03:04:52;;;;;;;;;;;22.00;1.00;;;;;;4975211;28;19933;-61
2023/08/30 03:07:21;;;;;;;;;;;22.00;1.00;;;;;;4975141;28;19930;-61
2023/08/30 03:09:51;;;;;;;;;;;22.00;1.00;;;;;;4975238;28;19992;-60
2023/08/30 03:12:18;;;;;;;;;;;22.00;1.00;;;;;;4977774;28;19932;-61
2023/08/30 03:14:46;;;;;;;;;;;22.00;1.00;;;;;;4963139;28;19926;-62
2023/08/30 03:17:13;;;;;;;;;;;22.00;1.00;;;;;;4979244;28;20013;-62
2023/08/30 03:19:40;;;;;;;;;;;22.00;1.00;;;;;;4978893;28;20398;-62
2023/08/30 03:22:07;;;;;;;;;;;22.00;1.00;;;;;;4978859;28;20305;-62
2023/08/30 03:24:35;;;;;;;;;;;22.00;1.00;;;;;;4978687;28;19925;-61
2023/08/30 03:27:02;;;;;;;;;;;22.00;1.00;;;;;;4978676;28;19972;-62
2023/08/30 03:29:29;;;;;;;;;;;22.00;1.00;;;;;;4995961;28;19993;-62
2023/08/30 03:31:56;;;;;;;;;;;22.00;1.00;;;;;;4978595;28;19926;-62
2023/08/30 03:34:22;;;;;;;;;;;22.00;1.00;;;;;;5154319;23;20394;-62
2023/08/30 03:36:54;;;;;;;;;;;22.00;1.00;;;;;;4959117;28;20014;-61
2023/08/30 03:39:21;;;;;;;;;;;22.00;1.00;;;;;;4976696;28;19954;-61
2023/08/30 03:41:48;;;;;;;;;;;22.00;1.00;;;;;;4959069;28;19933;-61
2023/08/30 03:44:14;;;;;;;;;;;22.00;1.00;;;;;;4976244;28;19933;-62
2023/08/30 03:46:41;;;;;;;;;;;22.00;1.00;;;;;;4958945;28;19926;-60
2023/08/30 03:49:08;;;;;;;;;;;22.00;1.00;;;;;;4959081;28;20353;-62
2023/08/30 03:51:35;;;;;;;;;;;22.00;1.00;;;;;;4976224;28;20422;-61
2023/08/30 03:54:02;;;;;;;;;;;22.00;1.00;;;;;;4958668;28;20421;-62
2023/08/30 03:56:29;;;;;;;;;;;22.00;1.00;;;;;;4976075;28;19926;-61
2023/08/30 03:58:56;;;;;;;;;;;22.00;1.00;;;;;;4957989;28;20020;-61
2023/08/30 04:01:23;;;;;;;;;;;22.00;1.00;;;;;;4955421;28;19926;-60
2023/08/30 04:03:50;;;;;;;;;;;22.00;1.00;;;;;;4957236;28;19978;-62
2023/08/30 04:06:17;;;;;;;;;;;22.00;1.00;;;;;;4963091;28;19936;-62
2023/08/30 04:08:43;;;;;;;;;;;22.00;1.00;;;;;;4955903;28;19934;-62
2023/08/30 04:11:10;;;;;;;;;;;22.00;1.00;;;;;;4945346;28;19949;-62
2023/08/30 04:13:37;;;;;;;;;;;22.00;1.00;;;;;;4946186;28;19931;-62
2023/08/30 04:16:04;;;;;;;;;;;22.00;1.00;;;;;;4945892;28;19973;-60
2023/08/30 04:18:30;;;;;;;;;;;22.00;1.00;;;;;;4955115;28;19926;-62
2023/08/30 04:20:58;;;;;;;;;;;22.00;1.00;;;;;;4951350;28;20374;-61
2023/08/30 04:23:24;;;;;;;;;;;22.00;1.00;;;;;;4975288;28;20189;-60
2023/08/30 04:25:52;;;;;;;;;;;21.90;1.00;;;;;;4932889;29;21822;-61
2023/08/30 04:28:18;;;;;;;;;;;21.90;1.00;;;;;;4951941;28;19926;-62
2023/08/30 04:30:47;;;;;;;;;;;21.90;1.00;;;;;;4955409;28;19974;-62
2023/08/30 04:33:13;;;;;;;;;;;21.90;1.00;;;;;;4953315;28;20293;-62
2023/08/30 04:35:40;;;;;;;;;;;21.90;1.00;;;;;;5030892;23;19937;-61
2023/08/30 04:38:07;;;;;;;;;;;21.90;1.00;;;;;;5013240;28;19932;-62
2023/08/30 04:40:34;;;;;;;;;;;21.90;1.00;;;;;;5012597;28;19925;-61
2023/08/30 04:43:02;;;;;;;;;;;21.90;1.00;;;;;;5003554;28;20353;-61
2023/08/30 04:45:29;;;;;;;;;;;21.90;1.00;;;;;;5014212;28;19926;-62
2023/08/30 04:47:56;;;;;;;;;;;21.90;1.00;;;;;;5013069;28;19975;-61
2023/08/30 04:50:25;;;;;;;;;;;21.90;1.00;;;;;;5012896;28;19932;-62
2023/08/30 04:52:52;;;;;;;;;;;21.90;1.00;;;;;;5012711;28;20019;-61
2023/08/30 04:55:18;;;;;;;;;;;21.90;1.00;;;;;;5004422;28;20060;-62
2023/08/30 04:57:47;;;;;;;;;;;21.90;1.00;;;;;;5012281;28;19925;-63
2023/08/30 05:00:16;;;;;;;;;;;21.90;1.00;;;;;;5012190;28;19926;-62
2023/08/30 05:02:46;;;;;;;;;;;21.90;1.00;;;;;;5012710;28;19925;-63
2023/08/30 05:05:14;;;;;;;;;;;21.90;1.00;;;;;;5013180;28;19930;-63
2023/08/30 05:07:41;;;;;;;;;;;21.90;1.00;;;;;;5012818;28;19926;-63
2023/08/30 05:10:08;;;;;;;;;;;21.90;1.00;;;;;;5013912;28;20377;-63
2023/08/30 05:12:35;;;;;;;;;;;21.90;1.00;;;;;;5013768;28;20349;-63
2023/08/30 05:15:03;;;;;;;;;;;21.90;1.00;;;;;;5012037;28;19973;-63
2023/08/30 05:17:31;;;;;;;;;;;21.90;1.00;;;;;;5013275;28;19929;-61
2023/08/30 05:19:58;;;;;;;;;;;21.90;1.00;;;;;;5011685;28;19925;-62
2023/08/30 05:22:25;;;;;;;;;;;21.90;1.00;;;;;;4999769;28;19925;-62
2023/08/30 05:24:51;;;;;;;;;;;21.90;1.00;;;;;;5012072;28;19933;-62
2023/08/30 05:27:19;;;;;;;;;;;21.80;1.00;;;;;;5013608;28;20304;-62
2023/08/30 05:29:47;;;;;;;;;;;21.80;1.00;;;;;;5012028;28;20020;-62
2023/08/30 05:32:13;;;;;;;;;;;21.80;1.00;;;;;;5001823;28;19933;-61
2023/08/30 05:35:03;;;;;;;;;;;21.80;1.00;;;;;;5012320;28;20373;-62
2023/08/30 05:37:57;;;;;;;;;;;21.80;1.00;;;;;;5247803;23;19932;-62
2023/08/30 05:40:44;;;;;;;;;;;21.80;1.00;;;;;;4992474;28;19980;-61
2023/08/30 05:43:11;;;;;;;;;;;21.80;1.00;;;;;;4990489;28;19965;-60
2023/08/30 05:45:38;;;;;;;;;;;21.80;1.00;;;;;;4976111;28;19925;-62
2023/08/30 05:48:05;;;;;;;;;;;21.80;1.00;;;;;;4971950;28;20570;-62
2023/08/30 05:50:32;;;;;;;;;;;21.80;1.00;;;;;;4964588;28;20337;-63
2023/08/30 05:52:59;;;;;;;;;;;21.80;1.00;;;;;;4960071;28;19936;-63
2023/08/30 05:55:26;;;;;;;;;;;21.80;1.00;;;;;;4975917;28;20417;-63
2023/08/30 05:57:53;;;;;;;;;;;21.80;1.00;;;;;;4976087;28;20134;-62
2023/08/30 06:00:20;;;;;;;;;;;21.80;1.00;;;;;;4975713;28;19976;-62
2023/08/30 06:02:46;;;;;;;;;;;21.80;1.00;;;;;;4993092;28;19930;-62
2023/08/30 06:05:13;;;;;;;;;;;21.80;1.00;;;;;;4993251;28;19987;-62
2023/08/30 06:07:40;;;;;;;;;;;21.80;1.00;;;;;;4993164;28;19933;-62
2023/08/30 06:10:07;;;;;;;;;;;21.80;1.00;;;;;;5100791;23;20028;-63
2023/08/30 06:12:33;;;;;;;;;;;21.80;1.00;;;;;;4993019;28;20350;-63
2023/08/30 06:15:00;;;;;;;;;;;21.80;1.00;;;;;;4990306;28;19930;-62
2023/08/30 06:17:27;;;;;;;;;;;21.80;1.00;;;;;;4973680;28;19926;-60
2023/08/30 06:19:54;;;;;;;;;;;21.80;1.00;;;;;;4970999;28;19926;-62
2023/08/30 06:22:21;;;;;;;;;;;21.80;1.00;;;;;;4966918;28;19930;-62
2023/08/30 06:24:48;;;;;;;;;;;21.80;1.00;;;;;;4972783;28;19965;-62
2023/08/30 06:27:15;;;;;;;;;;;21.80;1.00;;;;;;4973536;28;19930;-61
2023/08/30 06:29:41;;;;;;;;;;;21.80;1.00;;;;;;4973407;28;19926;-62
2023/08/30 06:32:08;;;;;;;;;;;21.80;1.00;;;;;;4973614;28;19930;-62
2023/08/30 06:34:35;;;;;;;;;;;21.80;1.00;;;;;;4973413;28;20014;-62
2023/08/30 06:37:02;;;;;;;;;;;21.80;1.00;;;;;;4973250;28;19933;-64
2023/08/30 06:39:33;;;;;;;;;;;21.70;1.00;;;;;;4969346;28;19977;-62
2023/08/30 06:41:59;;;;;;;;;;;21.70;1.00;;;;;;4973303;28;19926;-63
2023/08/30 06:44:27;;;;;;;;;;;21.70;1.00;;;;;;4955397;28;19926;-61
2023/08/30 06:46:54;;;;;;;;;;;21.70;1.00;;;;;;4979427;28;19926;-63
2023/08/30 06:49:21;;;;;;;;;;;21.70;1.00;;;;;;4979718;28;20381;-63
2023/08/30 06:51:48;;;;;;;;;;;21.70;1.00;;;;;;4979677;28;19981;-63
2023/08/30 06:54:14;;;;;;;;;;;21.70;1.00;;;;;;4979390;28;20029;-63
2023/08/30 06:56:41;;;;;;;;;;;21.70;1.00;;;;;;4979449;28;19990;-63
2023/08/30 06:59:08;;;;;;;;;;;21.70;1.00;;;;;;4979537;28;19932;-62
2023/08/30 07:01:35;;;;;;;;;;;21.70;1.00;;;;;;4979569;28;19932;-63
2023/08/30 07:04:02;;;;;;;;;;;21.70;1.00;;;;;;4979234;28;19926;-63
2023/08/30 07:06:30;;;;;;;;;;;21.70;1.00;;;;;;4979498;28;19926;-63
2023/08/30 07:08:57;;;;;;;;;;;21.70;1.00;;;;;;4979265;28;19926;-62
2023/08/30 07:11:24;;;;;;;;;;;21.70;1.00;;;;;;4979698;28;19926;-63
2023/08/30 07:13:59;;;;;;;;;;;21.70;1.00;;;;;;4979300;28;19932;-63
2023/08/30 07:16:26;;;;;;;;;;;21.70;1.00;;;;;;4979327;28;20405;-63
2023/08/30 07:18:53;;;;;;;;;;;21.70;1.00;;;;;;4979223;28;19937;-63
2023/08/30 07:21:20;;;;;;;;;;;21.70;1.00;;;;;;4979432;28;19926;-63
2023/08/30 07:23:46;;;;;;;;;;;21.70;1.00;;;;;;4979147;28;19926;-62
2023/08/30 07:26:13;;;;;;;;;;;21.70;1.00;;;;;;4971338;28;20465;-63
2023/08/30 07:28:40;;;;;;;;;;;21.70;1.00;;;;;;4979343;28;19981;-62
2023/08/30 07:31:07;;;;;;;;;;;21.70;1.00;;;;;;4979322;28;19980;-63
2023/08/30 07:33:34;;;;;;;;;;;21.70;1.00;;;;;;4979140;28;20025;-63
2023/08/30 07:36:00;;;;;;;;;;;21.70;1.00;;;;;;4979158;28;19926;-62
2023/08/30 07:38:27;;;;;;;;;;;21.70;1.00;;;;;;4979304;28;20335;-61
2023/08/30 07:43:42;;;;;;;;;;;21.70;1.00;;;;;;5023635;23;19932;-63
2023/08/30 07:46:09;;;;;;;;;;;21.70;1.00;;;;;;4989997;28;19926;-62
2023/08/30 07:48:36;;;;;;;;;;;21.70;1.00;;;;;;4998778;28;19926;-62
2023/08/30 07:51:03;;;;;;;;;;;21.70;1.00;;;;;;4998653;28;19925;-63
2023/08/30 07:53:29;;;;;;;;;;;21.70;1.00;;;;;;4998600;28;19926;-60
2023/08/30 07:55:56;;;;;;;;;;;21.70;1.00;;;;;;4998483;28;19972;-62
2023/08/30 07:58:23;;;;;;;;;;;21.70;1.00;;;;;;4994880;28;19934;-63
2023/08/30 08:00:53;;;;;;;;;;;21.70;1.00;;;;;;4995224;28;19926;-62
2023/08/30 08:03:20;;;;;;;;;;;21.70;1.00;;;;;;4995434;28;19926;-63
2023/08/30 08:05:47;;;;;;;;;;;21.70;1.00;;;;;;4995317;28;19934;-62
2023/08/30 08:08:14;;;;;;;;;;;21.70;1.00;;;;;;4995401;28;19967;-62
2023/08/30 08:10:44;;;;;;;;;;;21.70;1.00;;;;;;4995238;28;20406;-61
2023/08/30 08:15:59;;;;;;;;;;;21.60;1.00;;;;;;4940399;26;19982;-61
2023/08/30 08:18:27;;;;;;;;;;;21.70;1.00;;;;;;4956543;28;19926;-63
2023/08/30 08:20:53;;;;;;;;;;;21.60;1.00;;;;;;4955046;29;19930;-61
2023/08/30 08:23:20;;;;;;;;;;;21.70;1.00;;;;;;4956243;29;20351;-62
2023/08/30 08:25:47;;;;;;;;;;;21.70;1.00;;;;;;4956226;29;20009;-62
2023/08/30 08:28:14;;;;;;;;;;;21.60;1.00;;;;;;4956495;28;19999;-63
2023/08/30 08:30:42;;;;;;;;;;;21.60;1.00;;;;;;4956356;29;20391;-62
2023/08/30 08:33:09;;;;;;;;;;;21.60;1.00;;;;;;4956147;28;20418;-62
2023/08/30 08:35:36;;;;;;;;;;;21.60;1.00;;;;;;4956225;28;20025;-63
2023/08/30 08:38:03;;;;;;;;;;;21.60;1.00;;;;;;4956112;29;19926;-63
2023/08/30 08:40:36;;;;;;;;;;;21.60;1.00;;;;;;4956289;28;19927;-63
2023/08/30 08:43:06;;;;;;;;;;;21.60;1.00;;;;;;4956072;28;19930;-63
2023/08/30 08:48:29;;;;;;;;;;;21.60;1.00;;;;;;4984294;23;19933;-62
2023/08/30 08:50:56;;;;;;;;;;;21.60;1.00;;;;;;4957692;28;19941;-62
2023/08/30 08:53:23;;;;;;;;;;;21.60;1.00;;;;;;4974989;28;20092;-61
2023/08/30 08:55:51;;;;;;;;;;;21.60;1.00;;;;;;4974808;28;20009;-62
2023/08/30 08:58:17;;;;;;;;;;;21.60;1.00;;;;;;4974776;28;19926;-62
2023/08/30 09:00:44;;;;;;;;;;;21.60;1.00;;;;;;4974680;28;19965;-62
2023/08/30 09:03:11;;;;;;;;;;;21.60;1.00;;;;;;4974560;28;20342;-63
2023/08/30 09:05:41;;;;;;;;;;;21.60;1.00;;;;;;4974656;28;19926;-62
2023/08/30 09:08:09;;;;;;;;;;;21.60;1.00;;;;;;4974253;28;20024;-62
2023/08/30 09:10:36;;;;;;;;;;;21.60;1.00;;;;;;4974104;28;19933;-61
2023/08/30 09:13:03;;;;;;;;;;;21.60;1.00;;;;;;4974370;28;19932;-62
2023/08/30 09:15:33;;;;;;;;;;;21.60;1.00;;;;;;4969630;28;19966;-63
2023/08/30 09:18:00;;;;;;;;;;;21.60;1.00;;;;;;4955397;28;19926;-63
2023/08/30 09:20:27;;;;;;;;;;;21.60;1.00;;;;;;5172289;23;20028;-62
2023/08/30 09:22:54;;;;;;;;;;;21.60;1.00;;;;;;4993773;28;19929;-62
2023/08/30 09:25:25;;;;;;;;;;;21.60;1.00;;;;;;4994032;28;20421;-62
2023/08/30 09:27:56;;;;;;;;;;;21.60;1.00;;;;;;4993957;28;19933;-62
2023/08/30 09:30:23;;;;;;;;;;;21.60;1.00;;;;;;4993914;28;19926;-61
2023/08/30 09:32:50;;;;;;;;;;;21.60;1.00;;;;;;4993561;28;19960;-63
2023/08/30 09:35:17;;;;;;;;;;;21.60;1.00;;;;;;4993651;28;19926;-62
2023/08/30 09:37:46;;;;;;;;;;;21.60;1.00;;;;;;4993760;28;20405;-62
2023/08/30 09:40:18;;;;;;;;;;;21.60;1.00;;;;;;4993758;28;20389;-61
2023/08/30 09:42:45;;;;;;;;;;;21.70;1.00;;;;;;4993414;28;20325;-62
2023/08/30 09:45:22;;;;;;;;;;;21.60;1.00;;;;;;4993477;28;19933;-63
2023/08/30 09:47:49;;;;;;;;;;;21.70;1.00;;;;;;4993444;28;20397;-61
2023/08/30 09:50:17;;;;;;;;;;;21.60;1.00;;;;;;4993135;28;19933;-62
2023/08/30 09:52:46;;;;;;;;;;;21.70;1.00;;;;;;4993076;28;20008;-62
2023/08/30 09:55:14;;;;;;;;;;;21.70;1.00;;;;;;4991930;28;19933;-62
2023/08/30 09:57:44;;;;;;;;;;;21.70;1.00;;;;;;4993345;28;19926;-62
2023/08/30 10:00:14;;;;;;;;;;;21.70;1.00;;;;;;4993225;28;19940;-62
2023/08/30 10:02:44;;;;;;;;;;;21.70;1.00;;;;;;4993405;28;19932;-59
2023/08/30 10:05:30;;;;;;;;;;;21.70;1.00;;;;;;4993144;28;19926;-60
2023/08/30 10:07:58;;;;;;;;;;;21.70;1.00;;;;;;4993138;28;19925;-61
2023/08/30 10:10:25;;;;;;;;;;;21.70;1.00;;;;;;4993047;28;20017;-62
2023/08/30 10:12:53;;;;;;;;;;;21.70;1.00;;;;;;4993281;28;19980;-62
2023/08/30 10:15:38;;;;;;;;;;;21.70;1.00;;;;;;4993158;28;19926;-62
2023/08/30 10:18:06;;;;;;;;;;;21.70;1.00;;;;;;4992705;28;19933;-61
2023/08/30 10:20:33;;;;;;;;;;;21.80;1.00;;;;;;5018375;23;19970;-62
2023/08/30 10:23:02;;;;;;;;;;;21.80;1.00;;;;;;4973375;28;20020;-62
2023/08/30 10:25:31;;;;;;;;;;;21.80;1.00;;;;;;4973430;28;20461;-62
2023/08/30 10:27:58;;;;;;;;;;;21.80;1.00;;;;;;4973663;28;19926;-62
2023/08/30 10:30:25;;;;;;;;;;;21.80;1.00;;;;;;4973709;28;19949;-63
2023/08/30 10:32:52;;;;;;;;;;;21.80;1.00;;;;;;4973426;28;19933;-63
2023/08/30 10:35:19;;;;;;;;;;;21.80;1.00;;;;;;4973213;28;19985;-63
2023/08/30 10:37:55;;;;;;;;;;;21.90;1.00;;;;;;4973402;28;19926;-61
2023/08/30 10:40:22;;;;;;;;;;;21.90;1.00;;;;;;4973322;28;19926;-62
2023/08/30 10:42:59;;;;;;;;;;;21.90;1.00;;;;;;4973394;28;20409;-62
2023/08/30 10:45:26;;;;;;;;;;;21.90;1.00;;;;;;4965523;28;19973;-62
2023/08/30 10:47:57;;;;;;;;;;;21.90;1.00;;;;;;4973339;28;20468;-61
2023/08/30 10:50:31;;;;;;;;;;;21.90;1.00;;;;;;4973552;28;19932;-62
2023/08/30 10:52:58;;;;;;;;;;;21.90;1.00;;;;;;4973360;28;19930;-62
2023/08/30 10:55:26;;;;;;;;;;;21.90;1.00;;;;;;4973344;28;19926;-62
2023/08/30 10:58:00;;;;;;;;;;;21.90;1.00;;;;;;4973581;28;19933;-62
2023/08/30 11:00:27;;;;;;;;;;;21.90;1.00;;;;;;4973259;28;19926;-62
2023/08/30 11:02:54;;;;;;;;;;;21.90;1.00;;;;;;4973158;28;19957;-61
2023/08/30 11:05:25;;;;;;;;;;;21.90;1.00;;;;;;4973132;28;19926;-61
2023/08/30 11:07:52;;;;;;;;;;;21.90;1.00;;;;;;4973228;28;19927;-62
2023/08/30 11:10:19;;;;;;;;;;;21.90;1.00;;;;;;4973084;28;20057;-62
2023/08/30 11:12:49;;;;;;;;;;;21.90;1.00;;;;;;4973041;28;20457;-61
2023/08/30 11:15:16;;;;;;;;;;;21.90;1.00;;;;;;4973158;28;19936;-60
2023/08/30 11:17:43;;;;;;;;;;;21.90;1.00;;;;;;4973108;28;19926;-61
2023/08/30 11:20:11;;;;;;;;;;;21.90;1.00;;;;;;4972945;28;19934;-62
2023/08/30 11:22:48;;;;;;;;;;;21.90;1.00;;;;;;5166710;23;20362;-62
2023/08/30 11:25:15;;;;;;;;;;;21.90;1.00;;;;;;4956018;28;19930;-62
2023/08/30 11:27:42;;;;;;;;;;;21.90;1.00;;;;;;4978514;28;19926;-62
2023/08/30 11:30:09;;;;;;;;;;;22.00;1.00;;;;;;4975742;28;19949;-62
2023/08/30 11:32:40;;;;;;;;;;;22.00;1.00;;;;;;4974437;28;20192;-62
2023/08/30 11:35:07;;;;;;;;;;;22.00;1.00;;;;;;4984661;28;20421;-62
2023/08/30 11:37:34;;;;;;;;;;;22.00;1.00;;;;;;4976671;28;19934;-61
2023/08/30 11:40:02;;;;;;;;;;;22.00;1.00;;;;;;4976567;28;19926;-63
2023/08/30 11:42:30;;;;;;;;;;;22.00;1.00;;;;;;4976414;28;20020;-62
2023/08/30 11:44:58;;;;;;;;;;;22.00;1.00;;;;;;4976380;28;19933;-62
2023/08/30 11:47:25;;;;;;;;;;;22.00;1.00;;;;;;4976275;28;20020;-62
2023/08/30 11:49:53;;;;;;;;;;;22.00;1.00;;;;;;4976271;28;19926;-62
2023/08/30 11:52:20;;;;;;;;;;;22.00;1.00;;;;;;5106936;23;19926;-63
2023/08/30 11:54:47;;;;;;;;;;;22.00;1.00;;;;;;4995542;28;19926;-63
2023/08/30 11:57:14;;;;;;;;;;;22.00;1.00;;;;;;4995605;28;19992;-62
2023/08/30 11:59:41;;;;;;;;;;;22.00;1.00;;;;;;4995659;28;19926;-63
2023/08/30 12:02:12;;;;;;;;;;;22.00;1.00;;;;;;4995592;28;19957;-62
2023/08/30 12:04:40;;;;;;;;;;;22.00;1.00;;;;;;4995550;28;20393;-62
2023/08/30 12:07:07;;;;;;;;;;;22.00;1.00;;;;;;4995792;28;19926;-61
2023/08/30 12:09:34;;;;;;;;;;;22.00;1.00;;;;;;4995691;28;19932;-62
2023/08/30 12:12:13;;;;;;;;;;;22.00;1.00;;;;;;4995486;28;19968;-61
2023/08/30 12:14:40;;;;;;;;;;;22.00;1.00;;;;;;4995485;28;19926;-62
2023/08/30 12:17:08;;;;;;;;;;;22.00;1.00;;;;;;4995269;28;19969;-63
2023/08/30 12:19:35;;;;;;;;;;;22.00;1.00;;;;;;4987852;28;19925;-62
2023/08/30 12:22:05;;;;;;;;;;;22.00;1.00;;;;;;4995138;28;20009;-63
2023/08/30 12:24:44;;;;;;;;;;;22.00;1.00;;;;;;4994906;28;19925;-63
2023/08/30 12:27:11;;;;;;;;;;;22.00;1.00;;;;;;4977787;28;19988;-62
2023/08/30 12:29:38;;;;;;;;;;;22.00;1.00;;;;;;4995560;28;19925;-63
2023/08/30 12:32:05;;;;;;;;;;;22.00;1.00;;;;;;4994797;28;19933;-62
2023/08/30 12:34:32;;;;;;;;;;;22.00;1.00;;;;;;4994771;28;19929;-62
2023/08/30 12:36:59;;;;;;;;;;;22.00;1.00;;;;;;4994611;28;19934;-62
2023/08/30 12:39:30;;;;;;;;;;;22.00;1.00;;;;;;4994784;28;20012;-62
2023/08/30 12:41:56;;;;;;;;;;;22.00;1.00;;;;;;4994821;28;19925;-63
2023/08/30 12:44:23;;;;;;;;;;;22.00;1.00;;;;;;4994348;28;20393;-62
2023/08/30 12:46:50;;;;;;;;;;;22.00;1.00;;;;;;4994640;28;19926;-62
2023/08/30 12:49:17;;;;;;;;;;;22.00;1.00;;;;;;4994595;28;19933;-62
2023/08/30 12:51:43;;;;;;;;;;;22.00;1.00;;;;;;4994431;28;20593;-63
2023/08/30 12:54:10;;;;;;;;;;;22.00;1.00;;;;;;5587219;23;20020;-63
2023/08/30 12:56:37;;;;;;;;;;;22.00;1.00;;;;;;4975006;28;19926;-64
2023/08/30 12:59:03;;;;;;;;;;;22.00;1.00;;;;;;4974881;28;19926;-63
2023/08/30 13:01:30;;;;;;;;;;;22.00;1.00;;;;;;4974851;28;19926;-62
2023/08/30 13:03:57;;;;;;;;;;;22.00;1.00;;;;;;4974832;28;20402;-61
2023/08/30 13:06:24;;;;;;;;;;;22.00;1.00;;;;;;4974768;28;20021;-62
2023/08/30 13:08:50;;;;;;;;;;;22.00;1.00;;;;;;4974852;28;19926;-62
2023/08/30 13:11:17;;;;;;;;;;;22.00;1.00;;;;;;4974641;28;20522;-62
2023/08/30 13:13:44;;;;;;;;;;;22.00;1.00;;;;;;4974792;28;19926;-62
2023/08/30 13:16:11;;;;;;;;;;;22.00;1.00;;;;;;4974891;28;20433;-63
2023/08/30 13:18:37;;;;;;;;;;;22.00;1.00;;;;;;4966917;28;19930;-63
2023/08/30 13:21:04;;;;;;;;;;;22.00;1.00;;;;;;4974800;28;19948;-63
2023/08/30 13:23:31;;;;;;;;;;;22.00;1.00;;;;;;4974471;28;20290;-62
2023/08/30 13:28:38;;;;;;;;;;;22.00;1.00;;;;;;4953134;28;19934;-62
2023/08/30 13:31:08;;;;;;;;;;;22.00;1.00;;;;;;4955651;29;19927;-61
2023/08/30 13:33:35;;;;;;;;;;;22.10;1.00;;;;;;4954930;29;19930;-63
2023/08/30 13:36:03;;;;;;;;;;;22.00;1.00;;;;;;4955066;29;19927;-63
2023/08/30 13:38:29;;;;;;;;;;;22.10;1.00;;;;;;4955052;28;19926;-63
2023/08/30 13:41:03;;;;;;;;;;;22.10;1.00;;;;;;4955194;28;20383;-63
2023/08/30 13:43:31;;;;;;;;;;;22.10;1.00;;;;;;4954900;28;20017;-64
2023/08/30 13:46:01;;;;;;;;;;;22.10;1.00;;;;;;4954881;28;19932;-64
2023/08/30 13:48:28;;;;;;;;;;;22.10;1.00;;;;;;4954814;28;20012;-63
2023/08/30 13:50:54;;;;;;;;;;;22.10;1.00;;;;;;4947717;28;19942;-64
2023/08/30 13:53:21;;;;;;;;;;;22.10;1.00;;;;;;4926898;29;19939;-64
2023/08/30 13:55:48;;;;;;;;;;;22.10;1.00;;;;;;4945549;29;20029;-63
2023/08/30 14:01:10;;;;;;;;;;;22.10;1.00;;;;;;4932558;29;20409;-63
2023/08/30 14:03:37;;;;;;;;;;;22.10;1.00;;;;;;4935218;29;19998;-63
2023/08/30 14:06:04;;;;;;;;;;;22.10;1.00;;;;;;4935356;29;19926;-63
2023/08/30 14:08:31;;;;;;;;;;;22.10;1.00;;;;;;4935255;29;20026;-62
2023/08/30 14:10:58;;;;;;;;;;;22.10;1.00;;;;;;4935446;29;20355;-62
2023/08/30 14:13:25;;;;;;;;;;;22.10;1.00;;;;;;4935076;29;19927;-62
2023/08/30 14:15:51;;;;;;;;;;;22.10;1.00;;;;;;4935221;29;19981;-63
2023/08/30 14:18:18;;;;;;;;;;;22.10;1.00;;;;;;4935174;29;20026;-62
2023/08/30 14:20:45;;;;;;;;;;;22.10;1.00;;;;;;4935142;29;19927;-62
2023/08/30 14:23:12;;;;;;;;;;;22.10;1.00;;;;;;4935162;29;19950;-62
2023/08/30 14:25:41;;;;;;;;;;;22.10;1.00;;;;;;4935204;29;19982;-62
2023/08/30 14:28:08;;;;;;;;;;;22.10;1.00;;;;;;4932309;29;19967;-63
2023/08/30 14:33:30;;;;;;;;;;;22.10;1.00;;;;;;4936865;26;19930;-64
2023/08/30 14:35:58;;;;;;;;;;;22.10;1.00;;;;;;4942196;29;20290;-63
2023/08/30 14:38:25;;;;;;;;;;;22.10;1.00;;;;;;4947962;29;19935;-63
2023/08/30 14:40:58;;;;;;;;;;;22.10;1.00;;;;;;4940045;29;20442;-63
2023/08/30 14:43:25;;;;;;;;;;;22.10;1.00;;;;;;4935594;29;19943;-63
2023/08/30 14:45:58;;;;;;;;;;;22.10;1.00;;;;;;4942699;29;20025;-61
2023/08/30 14:48:36;;;;;;;;;;;22.10;1.00;;;;;;4920979;29;19930;-63
2023/08/30 14:51:05;;;;;;;;;;;22.10;1.00;;;;;;4910792;29;20085;-64
2023/08/30 14:53:31;;;;;;;;;;;22.20;1.00;;;;;;4929235;29;20295;-63
2023/08/30 14:55:58;;;;;;;;;;;22.20;1.00;;;;;;4930298;29;19926;-62